createdAt,value
2022-11-26T00:02:24.552Z,101457.09
2022-11-26T00:05:01.820Z,101451.72
2022-11-26T00:07:36.135Z,101444.75
2022-11-26T00:10:23.793Z,101444.72
2022-11-26T00:12:52.902Z,101442.91
2022-11-26T00:15:29.953Z,101451.69
2022-11-26T00:18:16.824Z,101446.50
2022-11-26T00:20:49.847Z,101446.34
2022-11-26T00:23:28.352Z,101459.56
2022-11-26T00:26:27.094Z,101464.81
2022-11-26T00:31:53.866Z,101461.31
2022-11-26T00:34:21.316Z,101461.28
2022-11-26T00:37:05.685Z,101461.28
2022-11-26T00:39:39.340Z,101464.75
2022-11-26T00:42:12.536Z,101461.28
2022-11-26T00:44:45.482Z,101475.25
2022-11-26T00:47:27.708Z,101468.31
2022-11-26T00:50:13.494Z,101466.53
2022-11-26T00:52:44.490Z,101473.63
2022-11-26T00:55:19.888Z,101477.06
2022-11-26T00:57:53.724Z,101488.41
2022-11-26T01:00:26.191Z,101472.69
2022-11-26T01:02:57.870Z,101474.47
2022-11-26T01:05:43.402Z,101475.34
2022-11-26T01:08:36.256Z,101471.97
2022-11-26T01:11:06.688Z,101483.38
2022-11-26T01:13:38.390Z,101495.53
2022-11-26T01:16:16.795Z,101499.84
2022-11-26T01:18:55.111Z,101502.44
2022-11-26T01:21:51.111Z,101511.19
2022-11-26T01:24:25.095Z,101519.16
2022-11-26T01:27:05.327Z,101527.84
2022-11-26T01:29:46.295Z,101516.41
2022-11-26T01:32:18.385Z,101519.94
2022-11-26T01:34:52.479Z,101519.06
2022-11-26T01:37:19.144Z,101532.09
2022-11-26T01:42:38.315Z,101518.16
2022-11-26T01:45:28.841Z,101513.81
2022-11-26T01:48:06.379Z,101519.94
2022-11-26T01:53:24.023Z,101522.56
2022-11-26T01:56:02.232Z,101533.03
2022-11-26T01:58:38.325Z,101540.88
2022-11-26T02:01:06.765Z,101536.59
2022-11-26T02:03:38.501Z,101543.56
2022-11-26T02:06:08.804Z,101540.94
2022-11-26T02:08:35.989Z,101547.06
2022-11-26T02:11:16.162Z,101541.81
2022-11-26T02:13:43.421Z,101544.50
2022-11-26T02:16:20.212Z,101547.13
2022-11-26T02:19:04.938Z,101550.56
2022-11-26T02:21:35.114Z,101550.56
2022-11-26T02:24:21.139Z,101554.94
2022-11-26T02:27:12.829Z,101554.97
2022-11-26T02:30:06.763Z,101565.44
2022-11-26T02:32:50.209Z,101569.81
2022-11-26T02:35:19.968Z,101573.28
2022-11-26T02:37:49.679Z,101575.91
2022-11-26T02:40:16.446Z,101573.34
2022-11-26T02:42:43.004Z,101574.25
2022-11-26T02:45:31.129Z,101579.47
2022-11-26T02:48:00.611Z,101578.59
2022-11-26T02:50:37.153Z,101584.72
2022-11-26T02:53:05.664Z,101582.09
2022-11-26T02:55:35.995Z,101593.47
2022-11-26T02:58:03.776Z,101593.50
2022-11-26T03:00:32.211Z,101593.47
2022-11-26T03:03:26.193Z,101590.03
2022-11-26T03:05:55.745Z,101588.28
2022-11-26T03:08:22.813Z,101590.91
2022-11-26T03:10:49.880Z,101597.97
2022-11-26T03:13:16.508Z,101594.47
2022-11-26T03:15:43.471Z,101597.13
2022-11-26T03:18:10.045Z,101593.69
2022-11-26T03:20:36.754Z,101599.78
2022-11-26T03:23:03.455Z,101604.16
2022-11-26T03:25:30.298Z,101610.25
2022-11-26T03:27:56.930Z,101609.47
2022-11-26T03:30:23.531Z,101604.22
2022-11-26T03:32:50.208Z,101602.50
2022-11-26T03:35:17.057Z,101608.63
2022-11-26T03:37:43.798Z,101609.50
2022-11-26T03:40:11.121Z,101604.28
2022-11-26T03:42:37.736Z,101613.97
2022-11-26T03:45:04.809Z,101620.09
2022-11-26T03:47:31.417Z,101616.47
2022-11-26T03:49:58.058Z,101616.47
2022-11-26T03:52:24.641Z,101619.94
2022-11-26T03:54:51.346Z,101621.72
2022-11-26T03:57:18.009Z,101620.84
2022-11-26T03:59:44.651Z,101627.81
2022-11-26T04:02:11.228Z,101629.59
2022-11-26T04:04:38.182Z,101632.22
2022-11-26T04:07:05.125Z,101640.09
2022-11-26T04:09:31.828Z,101632.28
2022-11-26T04:11:58.406Z,101638.41
2022-11-26T04:14:25.023Z,101637.53
2022-11-26T04:16:51.695Z,101639.31
2022-11-26T04:19:18.366Z,101634.94
2022-11-26T04:21:44.986Z,101638.50
2022-11-26T04:24:11.602Z,101643.72
2022-11-26T04:26:38.361Z,101639.38
2022-11-26T04:29:05.158Z,101651.56
2022-11-26T04:31:32.002Z,101648.09
2022-11-26T04:33:58.633Z,101660.31
2022-11-26T04:36:25.282Z,101665.59
2022-11-26T04:38:51.983Z,101672.78
2022-11-26T04:41:18.607Z,101671.03
2022-11-26T04:43:45.246Z,101671.16
2022-11-26T04:46:11.906Z,101675.28
2022-11-26T04:48:38.574Z,101681.34
2022-11-26T04:51:05.388Z,101685.59
2022-11-26T04:53:32.056Z,101689.91
2022-11-26T04:55:58.931Z,101696.94
2022-11-26T04:58:25.655Z,101689.91
2022-11-26T05:00:52.449Z,101694.28
2022-11-26T05:03:19.358Z,101694.31
2022-11-26T05:05:47.140Z,101695.22
2022-11-26T05:08:14.296Z,101697.84
2022-11-26T05:10:40.951Z,101704.03
2022-11-26T05:13:07.546Z,101711.09
2022-11-26T05:15:34.204Z,101719.03
2022-11-26T05:18:00.874Z,101721.75
2022-11-26T05:20:27.529Z,101729.47
2022-11-26T05:22:54.118Z,101725.91
2022-11-26T05:25:20.771Z,101722.41
2022-11-26T05:27:47.355Z,101723.28
2022-11-26T05:30:14.292Z,101720.69
2022-11-26T05:32:40.886Z,101732.09
2022-11-26T05:35:07.878Z,101739.97
2022-11-26T05:37:34.673Z,101736.47
2022-11-26T05:40:01.586Z,101742.63
2022-11-26T05:42:28.208Z,101743.50
2022-11-26T05:44:54.775Z,101747.00
2022-11-26T05:47:21.501Z,101746.16
2022-11-26T05:49:48.315Z,101752.28
2022-11-26T05:52:14.994Z,101757.53
2022-11-26T05:54:41.899Z,101756.72
2022-11-26T05:57:08.734Z,101754.13
2022-11-26T05:59:35.391Z,101747.19
2022-11-26T06:02:02.531Z,101748.91
2022-11-26T06:04:29.384Z,101753.25
2022-11-26T06:06:59.338Z,101756.75
2022-11-26T06:09:26.569Z,101760.25
2022-11-26T06:11:53.822Z,101768.97
2022-11-26T06:14:20.827Z,101778.59
2022-11-26T06:16:47.497Z,101776.00
2022-11-26T06:19:14.586Z,101777.78
2022-11-26T06:21:44.276Z,101776.03
2022-11-26T06:24:11.380Z,101784.81
2022-11-26T06:26:38.131Z,101791.81
2022-11-26T06:29:04.767Z,101795.34
2022-11-26T06:31:32.788Z,101806.72
2022-11-26T06:33:59.395Z,101805.88
2022-11-26T06:36:29.241Z,101810.31
2022-11-26T06:38:56.090Z,101813.81
2022-11-26T06:41:23.279Z,101819.06
2022-11-26T06:43:50.003Z,101817.34
2022-11-26T06:46:17.751Z,101822.69
2022-11-26T06:48:44.514Z,101822.00
2022-11-26T06:51:13.671Z,101830.69
2022-11-26T06:53:41.151Z,101835.16
2022-11-26T06:56:17.722Z,101836.06
2022-11-26T06:58:46.810Z,101836.25
2022-11-26T07:01:19.543Z,101845.13
2022-11-26T07:03:46.772Z,101846.81
2022-11-26T07:06:23.118Z,101850.69
2022-11-26T07:08:50.310Z,101855.13
2022-11-26T07:11:17.512Z,101857.25
2022-11-26T07:13:44.253Z,101860.53
2022-11-26T07:16:12.040Z,101864.91
2022-11-26T07:18:38.938Z,101863.41
2022-11-26T07:21:07.753Z,101869.34
2022-11-26T07:23:37.857Z,101866.72
2022-11-26T07:26:06.138Z,101873.03
2022-11-26T07:28:33.797Z,101866.69
2022-11-26T07:31:02.231Z,101867.53
2022-11-26T07:33:29.194Z,101877.28
2022-11-26T07:36:02.440Z,101877.41
2022-11-26T07:38:29.638Z,101876.59
2022-11-26T07:41:03.957Z,101873.25
2022-11-26T07:43:30.837Z,101876.75
2022-11-26T07:46:01.587Z,101883.94
2022-11-26T07:48:29.864Z,101877.78
2022-11-26T07:50:57.293Z,101881.34
2022-11-26T07:53:24.177Z,101889.22
2022-11-26T07:55:51.115Z,101889.19
2022-11-26T07:58:17.826Z,101890.97
2022-11-26T08:00:44.710Z,101891.91
2022-11-26T08:03:11.543Z,101898.94
2022-11-26T08:05:45.351Z,101903.44
2022-11-26T08:08:12.868Z,101902.59
2022-11-26T08:10:40.156Z,101906.13
2022-11-26T08:13:06.863Z,101911.38
2022-11-26T08:15:35.571Z,101914.88
2022-11-26T08:18:02.304Z,101919.31
2022-11-26T08:20:29.468Z,101918.47
2022-11-26T08:22:56.521Z,101926.34
2022-11-26T08:25:23.213Z,101921.97
2022-11-26T08:27:50.149Z,101930.84
2022-11-26T08:30:17.071Z,101933.47
2022-11-26T08:32:43.846Z,101930.09
2022-11-26T08:35:10.515Z,101932.66
2022-11-26T08:37:37.264Z,101933.63
2022-11-26T08:40:04.776Z,101944.16
2022-11-26T08:42:31.598Z,101952.09
2022-11-26T08:44:58.297Z,101949.41
2022-11-26T08:47:25.037Z,101953.91
2022-11-26T08:49:51.821Z,101956.63
2022-11-26T08:52:18.531Z,101961.81
2022-11-26T08:54:45.801Z,101964.50
2022-11-26T08:57:12.663Z,101962.03
2022-11-26T08:59:39.397Z,101962.78
2022-11-26T09:02:06.085Z,101972.47
2022-11-26T09:04:32.877Z,101974.31
2022-11-26T09:06:59.511Z,101976.28
2022-11-26T09:09:26.322Z,101983.19
2022-11-26T09:11:57.844Z,101985.72
2022-11-26T09:14:30.895Z,101993.59
2022-11-26T09:16:58.266Z,101993.44
2022-11-26T09:19:25.683Z,101992.69
2022-11-26T09:21:52.461Z,102006.59
2022-11-26T09:24:19.861Z,101999.47
2022-11-26T09:26:48.481Z,102003.78
2022-11-26T09:29:21.311Z,101998.53
2022-11-26T09:32:22.053Z,102012.53
2022-11-26T09:34:36.719Z,102011.66
2022-11-26T09:37:03.821Z,102012.53
2022-11-26T09:39:30.575Z,102013.59
2022-11-26T09:42:09.437Z,102018.78
2022-11-26T09:44:45.076Z,102016.16
2022-11-26T09:47:16.471Z,102020.69
2022-11-26T09:49:59.982Z,102026.75
2022-11-26T09:52:30.819Z,102028.50
2022-11-26T09:55:05.958Z,102026.75
2022-11-26T09:57:41.137Z,102026.75
2022-11-26T10:00:21.748Z,102033.81
2022-11-26T10:02:48.395Z,102040.09
2022-11-26T10:05:21.006Z,102030.47
2022-11-26T10:08:03.239Z,102038.38
2022-11-26T10:10:58.803Z,102041.13
2022-11-26T10:13:58.771Z,102041.09
2022-11-26T10:16:30.381Z,102046.28
2022-11-26T10:19:13.624Z,102044.66
2022-11-26T10:21:58.558Z,102042.91
2022-11-26T10:24:35.252Z,102040.34
2022-11-26T10:27:09.799Z,102037.69
2022-11-26T10:29:44.619Z,102043.91
2022-11-26T10:32:35.307Z,102040.44
2022-11-26T10:35:02.147Z,102044.88
2022-11-26T10:37:29.150Z,102047.50
2022-11-26T10:40:18.827Z,102062.47
2022-11-26T10:43:03.097Z,102057.94
2022-11-26T10:45:43.450Z,102053.69
2022-11-26T10:48:20.943Z,102066.84
2022-11-26T10:51:21.172Z,102063.47
2022-11-26T10:53:57.166Z,102073.97
2022-11-26T10:56:36.389Z,102074.09
2022-11-26T10:59:06.089Z,102071.69
2022-11-26T11:01:36.761Z,102077.81
2022-11-26T11:04:18.272Z,102077.84
2022-11-26T11:06:44.885Z,102079.59
2022-11-26T11:09:36.073Z,102076.06
2022-11-26T11:12:11.844Z,102071.69
2022-11-26T11:14:44.005Z,102077.84
2022-11-26T11:17:31.967Z,102075.31
2022-11-26T11:20:01.408Z,102078.84
2022-11-26T11:22:28.321Z,102075.38
2022-11-26T11:24:56.446Z,102087.69
2022-11-26T11:27:35.779Z,102077.22
2022-11-26T11:30:02.487Z,102079.84
2022-11-26T11:32:34.306Z,102080.59
2022-11-26T11:35:19.711Z,102084.19
2022-11-26T11:37:54.734Z,102081.59
2022-11-26T11:40:25.493Z,102076.34
2022-11-26T11:42:58.795Z,102073.81
2022-11-26T11:45:25.543Z,102082.59
2022-11-26T11:47:56.587Z,102083.38
2022-11-26T11:50:40.226Z,102093.09
2022-11-26T11:53:21.381Z,102090.44
2022-11-26T11:56:02.087Z,102099.16
2022-11-26T11:58:58.078Z,102097.25
2022-11-26T12:01:59.024Z,102101.63
2022-11-26T12:04:51.945Z,102113.81
2022-11-26T12:07:42.170Z,102110.19
2022-11-26T12:10:24.774Z,102106.69
2022-11-26T12:12:58.672Z,102107.56
2022-11-26T12:15:39.865Z,102111.06
2022-11-26T12:18:22.199Z,102111.94
2022-11-26T12:21:17.340Z,102110.31
2022-11-26T12:23:54.830Z,102107.63
2022-11-26T12:29:30.289Z,102093.75
2022-11-26T12:32:18.902Z,102094.75
2022-11-26T12:35:00.622Z,102092.06
2022-11-26T12:37:40.782Z,102099.22
2022-11-26T12:40:19.828Z,102092.06
2022-11-26T12:43:10.608Z,102097.38
2022-11-26T12:45:47.008Z,102099.97
2022-11-26T12:48:34.636Z,102109.50
2022-11-26T12:51:14.289Z,102106.81
2022-11-26T12:53:49.819Z,102110.41
2022-11-26T12:56:42.108Z,102112.16
2022-11-26T12:59:23.809Z,102106.78
2022-11-26T13:01:51.230Z,102114.63
2022-11-26T13:07:22.022Z,102118.91
2022-11-26T13:10:11.109Z,102115.41
2022-11-26T13:12:49.999Z,102120.78
2022-11-26T13:15:37.202Z,102124.13
2022-11-26T13:18:12.118Z,102119.63
2022-11-26T13:21:09.647Z,102120.44
2022-11-26T13:24:03.755Z,102123.06
2022-11-26T13:26:56.910Z,102115.97
2022-11-26T13:29:38.108Z,102122.25
2022-11-26T13:32:42.456Z,102126.63
2022-11-26T13:35:18.849Z,102118.44
2022-11-26T13:38:07.929Z,102118.47
2022-11-26T13:41:04.495Z,102130.72
2022-11-26T13:44:06.846Z,102118.50
2022-11-26T13:46:46.573Z,102125.53
2022-11-26T13:49:26.469Z,102130.84
2022-11-26T13:52:00.277Z,102131.75
2022-11-26T13:54:40.023Z,102131.75
2022-11-26T13:57:25.789Z,102141.13
2022-11-26T13:59:54.059Z,102138.47
2022-11-26T14:02:32.993Z,102144.53
2022-11-26T14:05:01.368Z,102144.50
2022-11-26T14:07:28.411Z,102141.16
2022-11-26T14:09:57.631Z,102146.28
2022-11-26T14:13:02.357Z,102144.50
2022-11-26T14:15:41.346Z,102145.41
2022-11-26T14:18:16.404Z,102152.34
2022-11-26T14:20:59.698Z,102154.94
2022-11-26T14:23:44.478Z,102147.81
2022-11-26T14:26:39.658Z,102144.19
2022-11-26T14:29:12.527Z,102145.97
2022-11-26T14:31:54.908Z,102151.28
2022-11-26T14:34:24.686Z,102152.97
2022-11-26T14:37:01.946Z,102151.22
2022-11-26T14:39:29.351Z,102150.28
2022-11-26T14:42:03.775Z,102158.16
2022-11-26T14:44:33.438Z,102154.63
2022-11-26T14:47:08.752Z,102151.16
2022-11-26T14:49:38.221Z,102151.16
2022-11-26T14:52:13.986Z,102157.28
2022-11-26T14:54:41.281Z,102159.03
2022-11-26T14:57:21.420Z,102154.63
2022-11-26T15:00:01.992Z,102159.78
2022-11-26T15:02:30.611Z,102161.50
2022-11-26T15:05:14.140Z,102163.28
2022-11-26T15:07:40.820Z,102169.44
2022-11-26T15:10:18.927Z,102170.25
2022-11-26T15:12:47.458Z,102171.16
2022-11-26T15:15:17.439Z,102179.81
2022-11-26T15:17:47.160Z,102177.16
2022-11-26T15:20:15.983Z,102167.50
2022-11-26T15:22:48.183Z,102177.13
2022-11-26T15:25:27.705Z,102175.38
2022-11-26T15:28:04.214Z,102177.97
2022-11-26T15:30:34.157Z,102170.00
2022-11-26T15:33:13.323Z,102178.84
2022-11-26T15:35:40.354Z,102182.34
2022-11-26T15:38:16.002Z,102181.44
2022-11-26T15:40:46.537Z,102187.50
2022-11-26T15:43:39.172Z,102187.47
2022-11-26T15:46:23.545Z,102185.72
2022-11-26T15:48:54.221Z,102183.06
2022-11-26T15:51:30.722Z,102181.31
2022-11-26T15:54:01.950Z,102184.84
2022-11-26T15:56:31.732Z,102186.59
2022-11-26T15:59:00.475Z,102179.56
2022-11-26T16:01:32.422Z,102178.69
2022-11-26T16:04:04.523Z,102176.03
2022-11-26T16:06:36.889Z,102172.56
2022-11-26T16:09:11.540Z,102172.56
2022-11-26T16:11:44.321Z,102173.41
2022-11-26T16:14:31.623Z,102175.09
2022-11-26T16:17:05.065Z,102168.94
2022-11-26T16:19:35.048Z,102170.78
2022-11-26T16:22:05.981Z,102170.72
2022-11-26T16:24:39.131Z,102172.44
2022-11-26T16:27:25.645Z,102170.69
2022-11-26T16:29:52.477Z,102175.06
2022-11-26T16:32:19.568Z,102178.63
2022-11-26T16:34:46.287Z,102189.94
2022-11-26T16:37:23.878Z,102185.56
2022-11-26T16:39:53.272Z,102183.75
2022-11-26T16:42:23.156Z,102180.31
2022-11-26T16:44:50.262Z,102179.41
2022-11-26T16:47:23.170Z,102180.25
2022-11-26T16:49:49.939Z,102186.38
2022-11-26T16:52:17.771Z,102187.31
2022-11-26T16:54:44.431Z,102183.72
2022-11-26T16:57:19.168Z,102199.44
2022-11-26T16:59:50.228Z,102191.53
2022-11-26T17:02:18.848Z,102192.41
2022-11-26T17:04:45.726Z,102190.66
2022-11-26T17:07:14.752Z,102194.19
2022-11-26T17:09:42.317Z,102197.69
2022-11-26T17:12:15.887Z,102190.72
2022-11-26T17:14:43.220Z,102202.13
2022-11-26T17:17:20.448Z,102207.44
2022-11-26T17:19:50.536Z,102207.38
2022-11-26T17:22:17.202Z,102215.31
2022-11-26T17:24:43.966Z,102213.53
2022-11-26T17:27:16.616Z,102216.22
2022-11-26T17:29:44.567Z,102217.09
2022-11-26T17:32:17.156Z,102220.88
2022-11-26T17:34:44.873Z,102219.84
2022-11-26T17:37:18.290Z,102221.63
2022-11-26T17:39:44.950Z,102219.00
2022-11-26T17:42:12.117Z,102214.63
2022-11-26T17:44:38.911Z,102213.75
2022-11-26T17:47:20.882Z,102209.38
2022-11-26T17:49:48.120Z,102216.56
2022-11-26T17:52:15.940Z,102211.47
2022-11-26T17:54:43.638Z,102213.00
2022-11-26T17:57:15.010Z,102212.09
2022-11-26T17:59:42.174Z,102210.38
2022-11-26T18:02:10.099Z,102213.72
2022-11-26T18:04:37.297Z,102209.31
2022-11-26T18:07:12.138Z,102210.28
2022-11-26T18:09:39.587Z,102210.59
2022-11-26T18:12:08.274Z,102208.53
2022-11-26T18:14:37.778Z,102207.75
2022-11-26T18:17:04.604Z,102212.75
2022-11-26T18:19:31.273Z,102220.69
2022-11-26T18:21:57.949Z,102215.47
2022-11-26T18:24:24.810Z,102216.38
2022-11-26T18:26:56.121Z,102221.63
2022-11-26T18:29:24.136Z,102224.28
2022-11-26T18:31:50.842Z,102220.78
2022-11-26T18:34:17.453Z,102221.75
2022-11-26T18:36:46.203Z,102223.56
2022-11-26T18:39:15.561Z,102224.34
2022-11-26T18:41:42.624Z,102220.75
2022-11-26T18:44:09.662Z,102212.88
2022-11-26T18:46:36.475Z,102210.34
2022-11-26T18:49:03.344Z,102203.28
2022-11-26T18:51:30.035Z,102211.28
2022-11-26T18:53:56.654Z,102209.47
2022-11-26T18:56:25.858Z,102203.25
2022-11-26T18:58:52.738Z,102206.91
2022-11-26T19:01:28.393Z,102211.16
2022-11-26T19:03:56.365Z,102211.22
2022-11-26T19:06:25.979Z,102212.88
2022-11-26T19:08:58.019Z,102210.44
2022-11-26T19:11:25.360Z,102206.84
2022-11-26T19:13:52.222Z,102205.88
2022-11-26T19:16:22.158Z,102203.22
2022-11-26T19:18:49.072Z,102206.75
2022-11-26T19:21:18.550Z,102203.22
2022-11-26T19:23:45.316Z,102206.84
2022-11-26T19:26:12.379Z,102207.66
2022-11-26T19:28:39.044Z,102205.88
2022-11-26T19:31:08.650Z,102217.28
2022-11-26T19:33:35.382Z,102213.69
2022-11-26T19:36:07.345Z,102203.19
2022-11-26T19:38:34.355Z,102209.34
2022-11-26T19:41:02.003Z,102208.69
2022-11-26T19:43:30.606Z,102206.72
2022-11-26T19:46:13.182Z,102205.81
2022-11-26T19:48:42.684Z,102212.75
2022-11-26T19:51:10.676Z,102218.06
2022-11-26T19:53:37.872Z,102204.88
2022-11-26T19:56:25.918Z,102203.09
2022-11-26T19:58:57.883Z,102207.47
2022-11-26T20:01:26.566Z,102211.84
2022-11-26T20:03:53.251Z,102212.81
2022-11-26T20:06:22.389Z,102215.34
2022-11-26T20:08:49.537Z,102215.34
2022-11-26T20:11:17.271Z,102215.31
2022-11-26T20:13:44.891Z,102219.72
2022-11-26T20:16:14.284Z,102213.56
2022-11-26T20:18:41.296Z,102216.19
2022-11-26T20:21:16.587Z,102218.84
2022-11-26T20:23:43.274Z,102222.28
2022-11-26T20:26:18.684Z,102227.56
2022-11-26T20:28:45.682Z,102226.66
2022-11-26T20:31:13.674Z,102226.72
2022-11-26T20:33:41.014Z,102228.47
2022-11-26T20:36:08.851Z,102220.59
2022-11-26T20:38:36.285Z,102225.84
2022-11-26T20:41:10.730Z,102223.22
2022-11-26T20:43:38.224Z,102222.31
2022-11-26T20:46:06.618Z,102222.28
2022-11-26T20:48:34.809Z,102224.03
2022-11-26T20:51:03.104Z,102228.47
2022-11-26T20:53:30.017Z,102222.50
2022-11-26T20:55:56.805Z,102223.31
2022-11-26T20:58:24.230Z,102226.78
2022-11-26T21:00:51.555Z,102227.78
2022-11-26T21:03:18.228Z,102231.19
2022-11-26T21:05:44.854Z,102231.19
2022-11-26T21:08:11.449Z,102230.38
2022-11-26T21:10:39.914Z,102223.31
2022-11-26T21:13:07.594Z,102219.84
2022-11-26T21:15:34.737Z,102212.81
2022-11-26T21:18:01.860Z,102207.47
2022-11-26T21:20:33.433Z,102197.22
2022-11-26T21:23:02.858Z,102196.25
2022-11-26T21:25:29.586Z,102197.13
2022-11-26T21:27:56.325Z,102193.63
2022-11-26T21:30:23.677Z,102199.78
2022-11-26T21:32:50.758Z,102197.06
2022-11-26T21:35:17.536Z,102195.28
2022-11-26T21:37:44.180Z,102202.25
2022-11-26T21:40:11.215Z,102205.19
2022-11-26T21:42:37.948Z,102220.00
2022-11-26T21:45:05.353Z,102221.59
2022-11-26T21:47:31.964Z,102210.19
2022-11-26T21:49:58.660Z,102209.25
2022-11-26T21:52:25.417Z,102212.91
2022-11-26T21:54:52.034Z,102214.56
2022-11-26T21:57:18.674Z,102217.97
2022-11-26T21:59:45.309Z,102216.19
2022-11-26T22:02:12.535Z,102218.06
2022-11-26T22:04:39.251Z,102217.97
2022-11-26T22:07:05.960Z,102225.06
2022-11-26T22:09:32.981Z,102220.63
2022-11-26T22:11:59.566Z,102225.00
2022-11-26T22:14:26.307Z,102225.13
2022-11-26T22:16:53.342Z,102222.34
2022-11-26T22:19:20.013Z,102218.84
2022-11-26T22:21:46.648Z,102224.19
2022-11-26T22:24:15.628Z,102219.69
2022-11-26T22:26:43.241Z,102226.66
2022-11-26T22:29:11.832Z,102226.69
2022-11-26T22:31:39.118Z,102232.81
2022-11-26T22:34:06.718Z,102227.56
2022-11-26T22:36:33.935Z,102224.06
2022-11-26T22:39:02.789Z,102231.03
2022-11-26T22:41:29.460Z,102218.75
2022-11-26T22:43:59.151Z,102221.41
2022-11-26T22:46:25.857Z,102221.41
2022-11-26T22:48:59.497Z,102226.72
2022-11-26T22:51:29.682Z,102224.06
2022-11-26T22:54:01.869Z,102224.03
2022-11-26T22:56:28.911Z,102225.78
2022-11-26T22:58:55.949Z,102217.00
2022-11-26T23:01:25.836Z,102221.41
2022-11-26T23:03:53.153Z,102225.78
2022-11-26T23:06:21.738Z,102230.13
2022-11-26T23:08:49.241Z,102231.00
2022-11-26T23:11:22.071Z,102231.03
2022-11-26T23:13:50.110Z,102231.91
2022-11-26T23:16:18.809Z,102226.66
2022-11-26T23:18:45.648Z,102227.53
2022-11-26T23:21:17.829Z,102225.75
2022-11-26T23:23:44.687Z,102221.38
2022-11-26T23:26:17.095Z,102218.81
2022-11-26T23:28:45.440Z,102214.38
2022-11-26T23:31:20.482Z,102211.72
2022-11-26T23:33:47.588Z,102209.06
2022-11-26T23:36:14.777Z,102205.50
2022-11-26T23:38:41.487Z,102214.28
2022-11-26T23:41:08.542Z,102215.16
2022-11-26T23:43:36.477Z,102214.28
2022-11-26T23:46:25.631Z,102220.38
2022-11-26T23:48:52.790Z,102217.75
2022-11-26T23:51:30.805Z,102212.50
2022-11-26T23:53:57.591Z,102209.00
2022-11-26T23:56:29.640Z,102214.25
2022-11-26T23:58:58.580Z,102208.16
